sensor_id;sensor_type;location;lat;lon;timestamp;P1;durP1;ratioP1;P2;durP2;ratioP2
18447;SDS011;9353;50.956;6.920;2022-11-20T00:00:49;13.03;;;11.73;;
18447;SDS011;9353;50.956;6.920;2022-11-20T00:03:16;11.60;;;10.40;;
18447;SDS011;9353;50.956;6.920;2022-11-20T00:05:44;13.20;;;11.90;;
18447;SDS011;9353;50.956;6.920;2022-11-20T00:08:11;13.17;;;11.63;;
18447;SDS011;9353;50.956;6.920;2022-11-20T00:10:39;13.67;;;11.53;;
18447;SDS011;9353;50.956;6.920;2022-11-20T00:13:06;12.93;;;11.60;;
18447;SDS011;9353;50.956;6.920;2022-11-20T00:15:33;12.37;;;11.27;;
18447;SDS011;9353;50.956;6.920;2022-11-20T00:18:01;12.23;;;11.03;;
18447;SDS011;9353;50.956;6.920;2022-11-20T00:20:28;13.30;;;11.90;;
18447;SDS011;9353;50.956;6.920;2022-11-20T00:22:56;11.93;;;10.83;;
18447;SDS011;9353;50.956;6.920;2022-11-20T00:25:24;12.60;;;11.30;;
18447;SDS011;9353;50.956;6.920;2022-11-20T00:27:51;11.70;;;10.60;;
18447;SDS011;9353;50.956;6.920;2022-11-20T00:30:18;12.10;;;10.90;;
18447;SDS011;9353;50.956;6.920;2022-11-20T00:32:45;11.57;;;10.47;;
18447;SDS011;9353;50.956;6.920;2022-11-20T00:35:12;11.80;;;10.60;;
18447;SDS011;9353;50.956;6.920;2022-11-20T00:37:39;11.73;;;10.63;;
18447;SDS011;9353;50.956;6.920;2022-11-20T00:40:08;12.33;;;11.13;;
18447;SDS011;9353;50.956;6.920;2022-11-20T00:42:36;17.17;;;11.73;;
18447;SDS011;9353;50.956;6.920;2022-11-20T00:45:03;12.67;;;11.23;;
18447;SDS011;9353;50.956;6.920;2022-11-20T00:47:30;12.83;;;11.67;;
18447;SDS011;9353;50.956;6.920;2022-11-20T00:49:57;11.63;;;10.53;;
18447;SDS011;9353;50.956;6.920;2022-11-20T00:52:24;12.07;;;11.10;;
18447;SDS011;9353;50.956;6.920;2022-11-20T00:54:51;12.50;;;11.20;;
18447;SDS011;9353;50.956;6.920;2022-11-20T00:57:20;13.40;;;12.00;;
18447;SDS011;9353;50.956;6.920;2022-11-20T00:59:47;11.67;;;10.57;;
18447;SDS011;9353;50.956;6.920;2022-11-20T01:02:14;11.90;;;10.70;;
18447;SDS011;9353;50.956;6.920;2022-11-20T01:04:42;11.83;;;10.70;;
18447;SDS011;9353;50.956;6.920;2022-11-20T01:07:09;11.67;;;10.57;;
18447;SDS011;9353;50.956;6.920;2022-11-20T01:09:36;11.53;;;10.53;;
18447;SDS011;9353;50.956;6.920;2022-11-20T01:12:03;11.83;;;10.70;;
18447;SDS011;9353;50.956;6.920;2022-11-20T01:14:32;11.03;;;10.03;;
18447;SDS011;9353;50.956;6.920;2022-11-20T01:16:59;12.00;;;10.90;;
18447;SDS011;9353;50.956;6.920;2022-11-20T01:19:26;12.23;;;11.03;;
18447;SDS011;9353;50.956;6.920;2022-11-20T01:21:53;11.83;;;10.73;;
18447;SDS011;9353;50.956;6.920;2022-11-20T01:24:21;12.03;;;10.87;;
18447;SDS011;9353;50.956;6.920;2022-11-20T01:26:49;12.13;;;10.90;;
18447;SDS011;9353;50.956;6.920;2022-11-20T01:29:21;11.30;;;10.20;;
18447;SDS011;9353;50.956;6.920;2022-11-20T01:31:49;11.60;;;10.50;;
18447;SDS011;9353;50.956;6.920;2022-11-20T01:34:17;11.73;;;10.73;;
18447;SDS011;9353;50.956;6.920;2022-11-20T01:36:45;11.67;;;10.57;;
18447;SDS011;9353;50.956;6.920;2022-11-20T01:39:13;12.10;;;10.90;;
18447;SDS011;9353;50.956;6.920;2022-11-20T01:41:41;10.77;;;9.87;;
18447;SDS011;9353;50.956;6.920;2022-11-20T01:47:34;13.90;;;10.70;;
18447;SDS011;9353;50.956;6.920;2022-11-20T01:50:04;11.97;;;10.00;;
18447;SDS011;9353;50.956;6.920;2022-11-20T01:52:32;12.90;;;11.80;;
18447;SDS011;9353;50.956;6.920;2022-11-20T01:55:02;11.73;;;10.63;;
18447;SDS011;9353;50.956;6.920;2022-11-20T01:57:32;11.57;;;10.47;;
18447;SDS011;9353;50.956;6.920;2022-11-20T02:00:02;11.60;;;10.50;;
18447;SDS011;9353;50.956;6.920;2022-11-20T02:02:30;12.17;;;10.97;;
18447;SDS011;9353;50.956;6.920;2022-11-20T02:05:00;11.73;;;10.63;;
18447;SDS011;9353;50.956;6.920;2022-11-20T02:07:29;11.93;;;10.73;;
18447;SDS011;9353;50.956;6.920;2022-11-20T02:09:56;13.00;;;11.40;;
18447;SDS011;9353;50.956;6.920;2022-11-20T02:12:23;12.40;;;11.20;;
18447;SDS011;9353;50.956;6.920;2022-11-20T02:15:09;12.27;;;11.17;;
18447;SDS011;9353;50.956;6.920;2022-11-20T02:17:36;11.60;;;10.50;;
18447;SDS011;9353;50.956;6.920;2022-11-20T02:20:05;12.13;;;10.93;;
18447;SDS011;9353;50.956;6.920;2022-11-20T02:22:34;11.23;;;10.23;;
18447;SDS011;9353;50.956;6.920;2022-11-20T02:25:04;12.47;;;11.20;;
18447;SDS011;9353;50.956;6.920;2022-11-20T02:27:32;11.83;;;10.77;;
18447;SDS011;9353;50.956;6.920;2022-11-20T02:30:00;12.00;;;10.90;;
18447;SDS011;9353;50.956;6.920;2022-11-20T02:32:28;12.13;;;11.03;;
18447;SDS011;9353;50.956;6.920;2022-11-20T02:34:56;13.23;;;12.03;;
18447;SDS011;9353;50.956;6.920;2022-11-20T02:37:23;12.03;;;10.87;;
18447;SDS011;9353;50.956;6.920;2022-11-20T02:39:54;11.30;;;10.37;;
18447;SDS011;9353;50.956;6.920;2022-11-20T02:42:23;13.30;;;11.60;;
18447;SDS011;9353;50.956;6.920;2022-11-20T02:44:50;11.87;;;10.77;;
18447;SDS011;9353;50.956;6.920;2022-11-20T02:47:17;11.50;;;10.40;;
18447;SDS011;9353;50.956;6.920;2022-11-20T02:49:44;14.33;;;11.73;;
18447;SDS011;9353;50.956;6.920;2022-11-20T02:52:11;12.37;;;11.07;;
18447;SDS011;9353;50.956;6.920;2022-11-20T02:54:38;11.13;;;9.93;;
18447;SDS011;9353;50.956;6.920;2022-11-20T02:57:05;12.17;;;10.97;;
18447;SDS011;9353;50.956;6.920;2022-11-20T02:59:34;12.27;;;11.17;;
18447;SDS011;9353;50.956;6.920;2022-11-20T03:02:01;13.47;;;11.60;;
18447;SDS011;9353;50.956;6.920;2022-11-20T03:04:28;12.37;;;11.17;;
18447;SDS011;9353;50.956;6.920;2022-11-20T03:06:55;13.80;;;11.37;;
18447;SDS011;9353;50.956;6.920;2022-11-20T03:09:22;12.40;;;11.20;;
18447;SDS011;9353;50.956;6.920;2022-11-20T03:11:49;12.53;;;11.33;;
18447;SDS011;9353;50.956;6.920;2022-11-20T03:14:16;14.00;;;11.60;;
18447;SDS011;9353;50.956;6.920;2022-11-20T03:16:45;13.20;;;11.60;;
18447;SDS011;9353;50.956;6.920;2022-11-20T03:19:12;13.07;;;11.73;;
18447;SDS011;9353;50.956;6.920;2022-11-20T03:21:39;13.50;;;12.10;;
18447;SDS011;9353;50.956;6.920;2022-11-20T03:24:07;17.73;;;11.03;;
18447;SDS011;9353;50.956;6.920;2022-11-20T03:26:34;15.33;;;11.73;;
18447;SDS011;9353;50.956;6.920;2022-11-20T03:29:02;11.87;;;10.67;;
18447;SDS011;9353;50.956;6.920;2022-11-20T03:31:30;11.70;;;10.50;;
18447;SDS011;9353;50.956;6.920;2022-11-20T03:33:59;11.87;;;10.80;;
18447;SDS011;9353;50.956;6.920;2022-11-20T03:36:26;11.53;;;10.57;;
18447;SDS011;9353;50.956;6.920;2022-11-20T03:38:55;11.87;;;10.87;;
18447;SDS011;9353;50.956;6.920;2022-11-20T03:41:23;11.67;;;10.40;;
18447;SDS011;9353;50.956;6.920;2022-11-20T03:43:51;12.20;;;10.83;;
18447;SDS011;9353;50.956;6.920;2022-11-20T03:46:18;13.73;;;12.40;;
18447;SDS011;9353;50.956;6.920;2022-11-20T03:48:46;12.87;;;11.57;;
18447;SDS011;9353;50.956;6.920;2022-11-20T03:51:15;12.73;;;11.60;;
18447;SDS011;9353;50.956;6.920;2022-11-20T03:53:43;13.80;;;12.40;;
18447;SDS011;9353;50.956;6.920;2022-11-20T03:56:10;14.10;;;12.70;;
18447;SDS011;9353;50.956;6.920;2022-11-20T03:58:38;12.03;;;10.83;;
18447;SDS011;9353;50.956;6.920;2022-11-20T04:01:06;13.13;;;10.80;;
18447;SDS011;9353;50.956;6.920;2022-11-20T04:03:34;12.23;;;10.90;;
18447;SDS011;9353;50.956;6.920;2022-11-20T04:06:02;14.10;;;11.73;;
18447;SDS011;9353;50.956;6.920;2022-11-20T04:08:31;12.77;;;11.50;;
18447;SDS011;9353;50.956;6.920;2022-11-20T04:11:07;12.47;;;10.87;;
18447;SDS011;9353;50.956;6.920;2022-11-20T04:13:34;12.83;;;11.53;;
18447;SDS011;9353;50.956;6.920;2022-11-20T04:16:02;11.87;;;10.73;;
18447;SDS011;9353;50.956;6.920;2022-11-20T04:18:29;12.50;;;11.27;;
18447;SDS011;9353;50.956;6.920;2022-11-20T04:20:56;12.00;;;10.90;;
18447;SDS011;9353;50.956;6.920;2022-11-20T04:23:23;12.90;;;11.47;;
18447;SDS011;9353;50.956;6.920;2022-11-20T04:25:52;12.03;;;10.93;;
18447;SDS011;9353;50.956;6.920;2022-11-20T04:28:19;13.73;;;12.07;;
18447;SDS011;9353;50.956;6.920;2022-11-20T04:30:46;12.37;;;11.10;;
18447;SDS011;9353;50.956;6.920;2022-11-20T04:33:13;11.90;;;10.87;;
18447;SDS011;9353;50.956;6.920;2022-11-20T04:35:40;13.63;;;11.90;;
18447;SDS011;9353;50.956;6.920;2022-11-20T04:38:07;12.93;;;11.57;;
18447;SDS011;9353;50.956;6.920;2022-11-20T04:40:34;12.50;;;11.20;;
18447;SDS011;9353;50.956;6.920;2022-11-20T04:43:03;14.40;;;11.73;;
18447;SDS011;9353;50.956;6.920;2022-11-20T04:45:30;12.80;;;11.50;;
18447;SDS011;9353;50.956;6.920;2022-11-20T04:47:57;13.73;;;12.33;;
18447;SDS011;9353;50.956;6.920;2022-11-20T04:50:24;13.20;;;11.93;;
18447;SDS011;9353;50.956;6.920;2022-11-20T04:52:51;12.87;;;11.67;;
18447;SDS011;9353;50.956;6.920;2022-11-20T04:55:18;13.77;;;12.17;;
18447;SDS011;9353;50.956;6.920;2022-11-20T04:57:45;16.20;;;11.87;;
18447;SDS011;9353;50.956;6.920;2022-11-20T05:00:17;14.87;;;12.10;;
18447;SDS011;9353;50.956;6.920;2022-11-20T05:02:45;13.50;;;12.10;;
18447;SDS011;9353;50.956;6.920;2022-11-20T05:05:12;13.40;;;12.03;;
18447;SDS011;9353;50.956;6.920;2022-11-20T05:07:39;12.60;;;11.37;;
18447;SDS011;9353;50.956;6.920;2022-11-20T05:10:06;13.87;;;12.40;;
18447;SDS011;9353;50.956;6.920;2022-11-20T05:12:33;16.73;;;12.53;;
18447;SDS011;9353;50.956;6.920;2022-11-20T05:15:00;15.10;;;12.33;;
18447;SDS011;9353;50.956;6.920;2022-11-20T05:17:29;13.33;;;11.97;;
18447;SDS011;9353;50.956;6.920;2022-11-20T05:19:56;14.53;;;12.30;;
18447;SDS011;9353;50.956;6.920;2022-11-20T05:22:23;12.83;;;11.73;;
18447;SDS011;9353;50.956;6.920;2022-11-20T05:24:50;12.87;;;11.67;;
18447;SDS011;9353;50.956;6.920;2022-11-20T05:27:17;14.37;;;11.67;;
18447;SDS011;9353;50.956;6.920;2022-11-20T05:29:44;14.20;;;12.70;;
18447;SDS011;9353;50.956;6.920;2022-11-20T05:32:11;13.80;;;12.40;;
18447;SDS011;9353;50.956;6.920;2022-11-20T05:34:40;13.37;;;11.80;;
18447;SDS011;9353;50.956;6.920;2022-11-20T05:37:07;12.50;;;11.20;;
18447;SDS011;9353;50.956;6.920;2022-11-20T05:39:34;13.53;;;11.77;;
18447;SDS011;9353;50.956;6.920;2022-11-20T05:42:01;14.53;;;12.90;;
18447;SDS011;9353;50.956;6.920;2022-11-20T05:44:46;14.07;;;12.17;;
18447;SDS011;9353;50.956;6.920;2022-11-20T05:47:13;13.20;;;12.07;;
18447;SDS011;9353;50.956;6.920;2022-11-20T05:49:42;13.57;;;12.37;;
18447;SDS011;9353;50.956;6.920;2022-11-20T05:52:09;13.47;;;11.63;;
18447;SDS011;9353;50.956;6.920;2022-11-20T05:54:36;12.80;;;11.43;;
18447;SDS011;9353;50.956;6.920;2022-11-20T05:57:03;13.47;;;12.07;;
18447;SDS011;9353;50.956;6.920;2022-11-20T05:59:30;12.97;;;11.87;;
18447;SDS011;9353;50.956;6.920;2022-11-20T06:01:57;12.87;;;11.67;;
18447;SDS011;9353;50.956;6.920;2022-11-20T06:04:24;13.93;;;12.53;;
18447;SDS011;9353;50.956;6.920;2022-11-20T06:06:53;13.77;;;12.30;;
18447;SDS011;9353;50.956;6.920;2022-11-20T06:09:20;16.87;;;12.73;;
18447;SDS011;9353;50.956;6.920;2022-11-20T06:11:47;16.83;;;13.47;;
18447;SDS011;9353;50.956;6.920;2022-11-20T06:14:14;16.40;;;13.10;;
18447;SDS011;9353;50.956;6.920;2022-11-20T06:16:41;13.70;;;12.30;;
18447;SDS011;9353;50.956;6.920;2022-11-20T06:19:08;16.40;;;13.53;;
18447;SDS011;9353;50.956;6.920;2022-11-20T06:21:35;14.27;;;12.70;;
18447;SDS011;9353;50.956;6.920;2022-11-20T06:24:04;16.37;;;12.97;;
18447;SDS011;9353;50.956;6.920;2022-11-20T06:26:31;13.47;;;11.70;;
18447;SDS011;9353;50.956;6.920;2022-11-20T06:28:58;16.23;;;12.90;;
18447;SDS011;9353;50.956;6.920;2022-11-20T06:31:25;20.53;;;13.83;;
18447;SDS011;9353;50.956;6.920;2022-11-20T06:33:53;17.63;;;14.10;;
18447;SDS011;9353;50.956;6.920;2022-11-20T06:36:21;17.00;;;13.47;;
18447;SDS011;9353;50.956;6.920;2022-11-20T06:38:48;17.13;;;13.70;;
18447;SDS011;9353;50.956;6.920;2022-11-20T06:41:17;19.17;;;13.87;;
18447;SDS011;9353;50.956;6.920;2022-11-20T06:43:45;17.70;;;13.57;;
18447;SDS011;9353;50.956;6.920;2022-11-20T06:46:12;14.17;;;12.67;;
18447;SDS011;9353;50.956;6.920;2022-11-20T06:48:42;15.27;;;13.37;;
18447;SDS011;9353;50.956;6.920;2022-11-20T06:51:09;17.27;;;13.70;;
18447;SDS011;9353;50.956;6.920;2022-11-20T06:53:36;14.30;;;12.53;;
18447;SDS011;9353;50.956;6.920;2022-11-20T06:56:04;15.30;;;13.37;;
18447;SDS011;9353;50.956;6.920;2022-11-20T06:58:32;17.80;;;13.43;;
18447;SDS011;9353;50.956;6.920;2022-11-20T07:01:00;16.83;;;13.07;;
18447;SDS011;9353;50.956;6.920;2022-11-20T07:03:27;15.23;;;13.53;;
18447;SDS011;9353;50.956;6.920;2022-11-20T07:05:55;18.90;;;13.73;;
18447;SDS011;9353;50.956;6.920;2022-11-20T07:08:22;17.13;;;14.43;;
18447;SDS011;9353;50.956;6.920;2022-11-20T07:10:49;20.00;;;13.83;;
18447;SDS011;9353;50.956;6.920;2022-11-20T07:13:16;20.27;;;13.93;;
18447;SDS011;9353;50.956;6.920;2022-11-20T07:15:45;19.13;;;13.63;;
18447;SDS011;9353;50.956;6.920;2022-11-20T07:18:13;17.33;;;13.33;;
18447;SDS011;9353;50.956;6.920;2022-11-20T07:20:40;20.83;;;15.13;;
18447;SDS011;9353;50.956;6.920;2022-11-20T07:23:08;15.43;;;13.83;;
18447;SDS011;9353;50.956;6.920;2022-11-20T07:25:35;17.47;;;13.97;;
18447;SDS011;9353;50.956;6.920;2022-11-20T07:28:02;16.50;;;13.20;;
18447;SDS011;9353;50.956;6.920;2022-11-20T07:30:29;16.13;;;12.40;;
18447;SDS011;9353;50.956;6.920;2022-11-20T07:32:58;13.70;;;11.97;;
18447;SDS011;9353;50.956;6.920;2022-11-20T07:35:25;14.07;;;12.50;;
18447;SDS011;9353;50.956;6.920;2022-11-20T07:37:52;15.63;;;12.50;;
18447;SDS011;9353;50.956;6.920;2022-11-20T07:40:19;13.13;;;11.70;;
18447;SDS011;9353;50.956;6.920;2022-11-20T07:42:47;12.53;;;11.13;;
18447;SDS011;9353;50.956;6.920;2022-11-20T07:45:15;16.67;;;12.53;;
18447;SDS011;9353;50.956;6.920;2022-11-20T07:47:42;15.50;;;12.47;;
18447;SDS011;9353;50.956;6.920;2022-11-20T07:50:11;13.93;;;11.73;;
18447;SDS011;9353;50.956;6.920;2022-11-20T07:52:38;13.73;;;12.03;;
18447;SDS011;9353;50.956;6.920;2022-11-20T07:55:06;17.80;;;12.40;;
18447;SDS011;9353;50.956;6.920;2022-11-20T07:57:33;17.23;;;12.73;;
18447;SDS011;9353;50.956;6.920;2022-11-20T08:00:00;13.10;;;11.87;;
18447;SDS011;9353;50.956;6.920;2022-11-20T08:02:28;14.63;;;12.10;;
18447;SDS011;9353;50.956;6.920;2022-11-20T08:04:55;12.80;;;11.50;;
18447;SDS011;9353;50.956;6.920;2022-11-20T08:07:23;13.10;;;11.83;;
18447;SDS011;9353;50.956;6.920;2022-11-20T08:09:50;12.37;;;10.70;;
18447;SDS011;9353;50.956;6.920;2022-11-20T08:12:18;13.03;;;11.83;;
18447;SDS011;9353;50.956;6.920;2022-11-20T08:15:03;12.87;;;11.67;;
18447;SDS011;9353;50.956;6.920;2022-11-20T08:17:30;11.60;;;10.60;;
18447;SDS011;9353;50.956;6.920;2022-11-20T08:19:57;11.97;;;10.80;;
18447;SDS011;9353;50.956;6.920;2022-11-20T08:22:26;11.33;;;10.17;;
18447;SDS011;9353;50.956;6.920;2022-11-20T08:24:53;12.03;;;10.77;;
18447;SDS011;9353;50.956;6.920;2022-11-20T08:27:20;13.00;;;11.80;;
18447;SDS011;9353;50.956;6.920;2022-11-20T08:29:47;13.73;;;12.13;;
18447;SDS011;9353;50.956;6.920;2022-11-20T08:32:14;14.33;;;12.33;;
18447;SDS011;9353;50.956;6.920;2022-11-20T08:34:41;13.43;;;12.07;;
18447;SDS011;9353;50.956;6.920;2022-11-20T08:37:08;14.67;;;12.23;;
18447;SDS011;9353;50.956;6.920;2022-11-20T08:39:37;16.70;;;12.70;;
18447;SDS011;9353;50.956;6.920;2022-11-20T08:42:06;13.90;;;11.70;;
18447;SDS011;9353;50.956;6.920;2022-11-20T08:44:33;12.87;;;11.30;;
18447;SDS011;9353;50.956;6.920;2022-11-20T08:47:00;13.63;;;11.20;;
18447;SDS011;9353;50.956;6.920;2022-11-20T08:49:27;13.37;;;11.30;;
18447;SDS011;9353;50.956;6.920;2022-11-20T08:51:54;14.43;;;12.33;;
18447;SDS011;9353;50.956;6.920;2022-11-20T08:54:22;11.80;;;10.73;;
18447;SDS011;9353;50.956;6.920;2022-11-20T08:56:50;13.67;;;11.67;;
18447;SDS011;9353;50.956;6.920;2022-11-20T08:59:17;13.23;;;11.83;;
18447;SDS011;9353;50.956;6.920;2022-11-20T09:01:44;12.30;;;11.10;;
18447;SDS011;9353;50.956;6.920;2022-11-20T09:04:11;20.07;;;14.67;;
18447;SDS011;9353;50.956;6.920;2022-11-20T09:06:39;13.80;;;12.20;;
18447;SDS011;9353;50.956;6.920;2022-11-20T09:09:06;14.63;;;12.27;;
18447;SDS011;9353;50.956;6.920;2022-11-20T09:11:34;13.83;;;11.83;;
18447;SDS011;9353;50.956;6.920;2022-11-20T09:14:02;13.93;;;12.37;;
18447;SDS011;9353;50.956;6.920;2022-11-20T09:16:30;16.53;;;12.43;;
18447;SDS011;9353;50.956;6.920;2022-11-20T09:18:57;16.20;;;13.87;;
18447;SDS011;9353;50.956;6.920;2022-11-20T09:21:24;17.50;;;14.60;;
18447;SDS011;9353;50.956;6.920;2022-11-20T09:23:51;18.03;;;13.43;;
18447;SDS011;9353;50.956;6.920;2022-11-20T09:26:18;17.10;;;13.20;;
18447;SDS011;9353;50.956;6.920;2022-11-20T09:28:45;15.97;;;13.47;;
18447;SDS011;9353;50.956;6.920;2022-11-20T09:31:17;16.93;;;13.97;;
18447;SDS011;9353;50.956;6.920;2022-11-20T09:33:46;14.93;;;12.87;;
18447;SDS011;9353;50.956;6.920;2022-11-20T09:36:13;17.73;;;13.80;;
18447;SDS011;9353;50.956;6.920;2022-11-20T09:38:41;16.87;;;14.10;;
18447;SDS011;9353;50.956;6.920;2022-11-20T09:41:10;16.27;;;13.33;;
18447;SDS011;9353;50.956;6.920;2022-11-20T09:43:44;20.00;;;14.23;;
18447;SDS011;9353;50.956;6.920;2022-11-20T09:46:17;17.83;;;14.40;;
18447;SDS011;9353;50.956;6.920;2022-11-20T09:48:49;16.13;;;13.20;;
18447;SDS011;9353;50.956;6.920;2022-11-20T09:51:21;17.97;;;13.07;;
18447;SDS011;9353;50.956;6.920;2022-11-20T09:53:53;17.70;;;14.17;;
18447;SDS011;9353;50.956;6.920;2022-11-20T09:56:23;17.23;;;13.27;;
18447;SDS011;9353;50.956;6.920;2022-11-20T09:58:51;17.90;;;13.70;;
18447;SDS011;9353;50.956;6.920;2022-11-20T10:01:21;15.37;;;13.10;;
18447;SDS011;9353;50.956;6.920;2022-11-20T10:03:51;15.00;;;12.87;;
18447;SDS011;9353;50.956;6.920;2022-11-20T10:06:21;15.73;;;13.03;;
18447;SDS011;9353;50.956;6.920;2022-11-20T10:08:51;14.23;;;12.43;;
18447;SDS011;9353;50.956;6.920;2022-11-20T10:11:24;17.20;;;12.80;;
18447;SDS011;9353;50.956;6.920;2022-11-20T10:13:57;15.93;;;12.43;;
18447;SDS011;9353;50.956;6.920;2022-11-20T10:16:32;18.20;;;13.90;;
18447;SDS011;9353;50.956;6.920;2022-11-20T10:19:05;14.20;;;12.57;;
18447;SDS011;9353;50.956;6.920;2022-11-20T10:21:38;17.10;;;13.70;;
18447;SDS011;9353;50.956;6.920;2022-11-20T10:26:51;18.47;;;14.03;;
18447;SDS011;9353;50.956;6.920;2022-11-20T10:29:21;17.53;;;12.67;;
18447;SDS011;9353;50.956;6.920;2022-11-20T10:31:56;16.60;;;13.23;;
18447;SDS011;9353;50.956;6.920;2022-11-20T10:34:25;14.83;;;13.20;;
18447;SDS011;9353;50.956;6.920;2022-11-20T10:36:54;15.97;;;13.43;;
18447;SDS011;9353;50.956;6.920;2022-11-20T10:39:24;18.73;;;13.80;;
18447;SDS011;9353;50.956;6.920;2022-11-20T10:41:52;16.47;;;12.93;;
18447;SDS011;9353;50.956;6.920;2022-11-20T10:44:20;19.13;;;14.17;;
18447;SDS011;9353;50.956;6.920;2022-11-20T10:47:09;19.47;;;14.40;;
18447;SDS011;9353;50.956;6.920;2022-11-20T10:49:39;18.23;;;14.27;;
18447;SDS011;9353;50.956;6.920;2022-11-20T10:52:09;22.43;;;15.97;;
18447;SDS011;9353;50.956;6.920;2022-11-20T10:54:40;18.67;;;15.40;;
18447;SDS011;9353;50.956;6.920;2022-11-20T10:57:14;19.00;;;14.77;;
18447;SDS011;9353;50.956;6.920;2022-11-20T10:59:51;21.67;;;14.43;;
18447;SDS011;9353;50.956;6.920;2022-11-20T11:02:24;20.57;;;15.57;;
18447;SDS011;9353;50.956;6.920;2022-11-20T11:04:51;20.47;;;15.13;;
18447;SDS011;9353;50.956;6.920;2022-11-20T11:07:20;20.53;;;14.63;;
18447;SDS011;9353;50.956;6.920;2022-11-20T11:09:50;24.70;;;15.70;;
18447;SDS011;9353;50.956;6.920;2022-11-20T11:12:19;17.90;;;15.00;;
18447;SDS011;9353;50.956;6.920;2022-11-20T11:14:47;20.03;;;15.80;;
18447;SDS011;9353;50.956;6.920;2022-11-20T11:17:28;21.53;;;15.93;;
18447;SDS011;9353;50.956;6.920;2022-11-20T11:19:56;18.00;;;15.30;;
18447;SDS011;9353;50.956;6.920;2022-11-20T11:22:23;24.50;;;16.17;;
18447;SDS011;9353;50.956;6.920;2022-11-20T11:24:51;24.83;;;15.97;;
18447;SDS011;9353;50.956;6.920;2022-11-20T11:27:18;18.00;;;15.90;;
18447;SDS011;9353;50.956;6.920;2022-11-20T11:29:45;19.30;;;14.90;;
18447;SDS011;9353;50.956;6.920;2022-11-20T11:32:14;19.97;;;16.13;;
18447;SDS011;9353;50.956;6.920;2022-11-20T11:34:42;20.23;;;15.03;;
18447;SDS011;9353;50.956;6.920;2022-11-20T11:37:11;17.40;;;14.57;;
18447;SDS011;9353;50.956;6.920;2022-11-20T11:39:40;15.67;;;13.83;;
18447;SDS011;9353;50.956;6.920;2022-11-20T11:42:08;19.97;;;14.27;;
18447;SDS011;9353;50.956;6.920;2022-11-20T11:44:43;18.73;;;14.63;;
18447;SDS011;9353;50.956;6.920;2022-11-20T11:47:29;21.80;;;14.57;;
18447;SDS011;9353;50.956;6.920;2022-11-20T11:50:02;18.53;;;14.63;;
18447;SDS011;9353;50.956;6.920;2022-11-20T11:52:41;17.57;;;14.40;;
18447;SDS011;9353;50.956;6.920;2022-11-20T11:55:10;21.67;;;16.10;;
18447;SDS011;9353;50.956;6.920;2022-11-20T11:57:41;18.13;;;15.10;;
18447;SDS011;9353;50.956;6.920;2022-11-20T12:00:11;18.37;;;14.70;;
18447;SDS011;9353;50.956;6.920;2022-11-20T12:02:42;20.63;;;14.50;;
18447;SDS011;9353;50.956;6.920;2022-11-20T12:05:18;20.33;;;14.93;;
18447;SDS011;9353;50.956;6.920;2022-11-20T12:07:46;25.37;;;16.27;;
18447;SDS011;9353;50.956;6.920;2022-11-20T12:10:17;20.70;;;15.43;;
18447;SDS011;9353;50.956;6.920;2022-11-20T12:12:47;18.60;;;14.47;;
18447;SDS011;9353;50.956;6.920;2022-11-20T12:15:16;18.80;;;15.70;;
18447;SDS011;9353;50.956;6.920;2022-11-20T12:17:47;19.57;;;15.37;;
18447;SDS011;9353;50.956;6.920;2022-11-20T12:20:14;22.53;;;16.53;;
18447;SDS011;9353;50.956;6.920;2022-11-20T12:22:43;20.53;;;15.13;;
18447;SDS011;9353;50.956;6.920;2022-11-20T12:25:16;22.97;;;16.60;;
18447;SDS011;9353;50.956;6.920;2022-11-20T12:27:48;20.80;;;16.73;;
18447;SDS011;9353;50.956;6.920;2022-11-20T12:30:19;19.33;;;15.60;;
18447;SDS011;9353;50.956;6.920;2022-11-20T12:32:52;23.10;;;16.50;;
18447;SDS011;9353;50.956;6.920;2022-11-20T12:35:33;27.30;;;20.30;;
18447;SDS011;9353;50.956;6.920;2022-11-20T12:38:07;25.77;;;18.10;;
18447;SDS011;9353;50.956;6.920;2022-11-20T12:40:39;22.40;;;16.00;;
18447;SDS011;9353;50.956;6.920;2022-11-20T12:43:11;20.33;;;15.23;;
18447;SDS011;9353;50.956;6.920;2022-11-20T12:46:03;18.40;;;14.50;;
18447;SDS011;9353;50.956;6.920;2022-11-20T12:48:41;28.10;;;18.87;;
18447;SDS011;9353;50.956;6.920;2022-11-20T12:51:19;20.03;;;16.30;;
18447;SDS011;9353;50.956;6.920;2022-11-20T12:53:53;18.23;;;14.53;;
18447;SDS011;9353;50.956;6.920;2022-11-20T12:56:27;27.23;;;18.57;;
18447;SDS011;9353;50.956;6.920;2022-11-20T12:58:59;17.97;;;14.93;;
18447;SDS011;9353;50.956;6.920;2022-11-20T13:01:30;19.33;;;14.43;;
18447;SDS011;9353;50.956;6.920;2022-11-20T13:04:07;18.93;;;14.97;;
18447;SDS011;9353;50.956;6.920;2022-11-20T13:06:35;20.43;;;15.27;;
18447;SDS011;9353;50.956;6.920;2022-11-20T13:09:04;16.83;;;13.57;;
18447;SDS011;9353;50.956;6.920;2022-11-20T13:11:37;20.10;;;14.77;;
18447;SDS011;9353;50.956;6.920;2022-11-20T13:14:13;20.53;;;14.30;;
18447;SDS011;9353;50.956;6.920;2022-11-20T13:16:45;16.50;;;14.30;;
18447;SDS011;9353;50.956;6.920;2022-11-20T13:19:15;22.03;;;15.13;;
18447;SDS011;9353;50.956;6.920;2022-11-20T13:21:44;18.03;;;14.53;;
18447;SDS011;9353;50.956;6.920;2022-11-20T13:24:22;16.07;;;14.30;;
18447;SDS011;9353;50.956;6.920;2022-11-20T13:27:05;19.13;;;14.70;;
18447;SDS011;9353;50.956;6.920;2022-11-20T13:29:33;19.07;;;13.43;;
18447;SDS011;9353;50.956;6.920;2022-11-20T13:32:02;20.47;;;12.93;;
18447;SDS011;9353;50.956;6.920;2022-11-20T13:34:29;20.67;;;15.47;;
18447;SDS011;9353;50.956;6.920;2022-11-20T13:36:57;18.17;;;13.77;;
18447;SDS011;9353;50.956;6.920;2022-11-20T13:39:27;16.23;;;13.27;;
18447;SDS011;9353;50.956;6.920;2022-11-20T13:41:55;32.27;;;14.43;;
18447;SDS011;9353;50.956;6.920;2022-11-20T13:44:24;20.93;;;14.43;;
18447;SDS011;9353;50.956;6.920;2022-11-20T13:46:52;23.70;;;14.03;;
18447;SDS011;9353;50.956;6.920;2022-11-20T13:49:21;18.13;;;13.47;;
18447;SDS011;9353;50.956;6.920;2022-11-20T13:51:50;16.47;;;13.00;;
18447;SDS011;9353;50.956;6.920;2022-11-20T13:54:24;14.70;;;12.90;;
18447;SDS011;9353;50.956;6.920;2022-11-20T13:56:58;15.90;;;14.27;;
18447;SDS011;9353;50.956;6.920;2022-11-20T13:59:30;19.13;;;14.83;;
18447;SDS011;9353;50.956;6.920;2022-11-20T14:02:03;130.37;;;22.83;;
18447;SDS011;9353;50.956;6.920;2022-11-20T14:04:33;20.63;;;15.63;;
18447;SDS011;9353;50.956;6.920;2022-11-20T14:07:00;23.10;;;16.00;;
18447;SDS011;9353;50.956;6.920;2022-11-20T14:09:28;20.77;;;15.93;;
18447;SDS011;9353;50.956;6.920;2022-11-20T14:11:57;18.00;;;14.07;;
18447;SDS011;9353;50.956;6.920;2022-11-20T14:14:24;21.43;;;15.03;;
18447;SDS011;9353;50.956;6.920;2022-11-20T14:16:52;15.87;;;13.00;;
18447;SDS011;9353;50.956;6.920;2022-11-20T14:19:23;18.07;;;13.47;;
18447;SDS011;9353;50.956;6.920;2022-11-20T14:21:52;15.23;;;12.90;;
18447;SDS011;9353;50.956;6.920;2022-11-20T14:24:20;16.47;;;13.37;;
18447;SDS011;9353;50.956;6.920;2022-11-20T14:26:47;17.50;;;14.07;;
18447;SDS011;9353;50.956;6.920;2022-11-20T14:29:17;21.47;;;13.23;;
18447;SDS011;9353;50.956;6.920;2022-11-20T14:31:45;18.10;;;13.07;;
18447;SDS011;9353;50.956;6.920;2022-11-20T14:34:14;16.60;;;13.10;;
18447;SDS011;9353;50.956;6.920;2022-11-20T14:36:42;17.47;;;13.80;;
18447;SDS011;9353;50.956;6.920;2022-11-20T14:39:10;17.83;;;13.20;;
18447;SDS011;9353;50.956;6.920;2022-11-20T14:41:37;18.03;;;14.90;;
18447;SDS011;9353;50.956;6.920;2022-11-20T14:44:05;17.50;;;13.10;;
18447;SDS011;9353;50.956;6.920;2022-11-20T14:46:34;16.73;;;13.83;;
18447;SDS011;9353;50.956;6.920;2022-11-20T14:49:01;15.93;;;13.50;;